createdAt,value
2019-03-08T00:00:21.322Z,1010.46
2019-03-08T00:01:21.385Z,1010.46
2019-03-08T00:02:21.325Z,1010.48
2019-03-08T00:03:21.218Z,1010.5
2019-03-08T00:04:21.315Z,1010.55
2019-03-08T00:05:21.173Z,1010.48
2019-03-08T00:06:21.301Z,1010.56
2019-03-08T00:07:21.370Z,1010.56
2019-03-08T00:08:21.232Z,1010.56
2019-03-08T00:09:21.252Z,1010.55
2019-03-08T00:10:21.403Z,1010.58
2019-03-08T00:11:21.174Z,1010.53
2019-03-08T00:12:21.231Z,1010.51
2019-03-08T00:13:21.354Z,1010.57
2019-03-08T00:14:21.177Z,1010.54
2019-03-08T00:15:21.261Z,1010.55
2019-03-08T00:16:21.392Z,1010.52
2019-03-08T00:17:21.207Z,1010.54
2019-03-08T00:18:21.281Z,1010.58
2019-03-08T00:19:21.355Z,1010.6
2019-03-08T00:20:21.252Z,1010.6
2019-03-08T00:21:21.233Z,1010.58
2019-03-08T00:22:21.656Z,1010.62
2019-03-08T00:23:21.211Z,1010.6
2019-03-08T00:24:21.240Z,1010.68
2019-03-08T00:25:21.366Z,1010.68
2019-03-08T00:26:21.223Z,1010.66
2019-03-08T00:27:21.386Z,1010.66
2019-03-08T00:28:21.379Z,1010.68
2019-03-08T00:29:22.106Z,1010.77
2019-03-08T00:30:21.258Z,1010.75
2019-03-08T00:31:21.328Z,1010.77
2019-03-08T00:32:21.196Z,1010.79
2019-03-08T00:33:21.197Z,1010.72
2019-03-08T00:34:21.368Z,1010.77
2019-03-08T00:35:21.170Z,1010.84
2019-03-08T00:36:21.240Z,1010.86
2019-03-08T00:37:21.329Z,1010.84
2019-03-08T00:38:21.186Z,1010.86
2019-03-08T00:39:21.239Z,1010.87
2019-03-08T00:40:21.354Z,1010.9
2019-03-08T00:41:21.171Z,1010.92
2019-03-08T00:42:21.330Z,1010.82
2019-03-08T00:43:21.381Z,1010.91
2019-03-08T00:44:21.163Z,1010.88
2019-03-08T00:45:21.245Z,1010.87
2019-03-08T00:46:21.371Z,1010.79
2019-03-08T00:47:21.163Z,1010.87
2019-03-08T00:48:21.284Z,1010.89
2019-03-08T00:49:21.331Z,1010.86
2019-03-08T00:50:21.194Z,1010.9
2019-03-08T00:51:21.258Z,1010.9
2019-03-08T00:52:21.367Z,1010.93
2019-03-08T00:53:21.230Z,1010.91
2019-03-08T00:54:21.252Z,1010.92
2019-03-08T00:55:21.357Z,1010.87
2019-03-08T00:56:21.171Z,1010.9
2019-03-08T00:57:21.348Z,1010.85
2019-03-08T00:58:21.338Z,1010.88
2019-03-08T00:59:21.204Z,1010.86
2019-03-08T01:00:21.211Z,1010.87
2019-03-08T01:01:21.352Z,1010.91
2019-03-08T01:02:21.145Z,1010.92
2019-03-08T01:03:21.333Z,1010.93
2019-03-08T01:04:21.341Z,1010.96
2019-03-08T01:05:21.195Z,1010.92
2019-03-08T01:06:21.266Z,1010.93
2019-03-08T01:07:21.672Z,1010.96
2019-03-08T01:08:21.227Z,1010.97
2019-03-08T01:09:21.262Z,1011.01
2019-03-08T01:10:21.384Z,1011.02
2019-03-08T01:11:21.519Z,1010.97
2019-03-08T01:12:21.432Z,1010.99
2019-03-08T01:13:21.379Z,1010.95
2019-03-08T01:14:21.199Z,1010.97
2019-03-08T01:15:21.266Z,1010.95
2019-03-08T01:16:21.197Z,1010.89
2019-03-08T01:17:21.194Z,1010.97
2019-03-08T01:18:21.273Z,1011.01
2019-03-08T01:19:21.393Z,1011.03
2019-03-08T01:20:21.172Z,1011.02
2019-03-08T01:21:21.257Z,1011.15
2019-03-08T01:22:21.457Z,1011.07
2019-03-08T01:23:21.200Z,1011.12
2019-03-08T01:24:21.249Z,1011.07
2019-03-08T01:25:21.673Z,1011.09
2019-03-08T01:26:21.146Z,1011.11
2019-03-08T01:27:21.257Z,1011.13
2019-03-08T01:28:21.425Z,1011.16
2019-03-08T01:29:21.211Z,1011.18
2019-03-08T01:30:21.289Z,1011.19
2019-03-08T01:31:21.344Z,1011.18
2019-03-08T01:32:21.216Z,1011.12
2019-03-08T01:33:21.377Z,1011.16
2019-03-08T01:34:21.368Z,1011.2
2019-03-08T01:35:21.718Z,1011.22
2019-03-08T01:36:21.254Z,1011.26
2019-03-08T01:37:21.430Z,1011.25
2019-03-08T01:38:21.257Z,1011.32
2019-03-08T01:39:21.344Z,1011.3
2019-03-08T01:40:21.455Z,1011.34
2019-03-08T01:41:21.226Z,1011.35
2019-03-08T01:42:21.320Z,1011.38
2019-03-08T01:43:21.877Z,1011.27
2019-03-08T01:44:21.229Z,1011.31
2019-03-08T01:45:21.242Z,1011.25
2019-03-08T01:46:21.549Z,1011.3
2019-03-08T01:47:21.253Z,1011.25
2019-03-08T01:48:21.233Z,1011.2
2019-03-08T01:49:21.381Z,1011.27
2019-03-08T01:50:21.151Z,1011.29
2019-03-08T01:51:21.832Z,1011.29
2019-03-08T01:52:21.377Z,1011.28
2019-03-08T01:53:21.158Z,1011.39
2019-03-08T01:54:21.304Z,1011.39
2019-03-08T01:55:21.399Z,1011.46
2019-03-08T01:56:21.470Z,1011.57
2019-03-08T01:57:21.223Z,1011.44
2019-03-08T01:58:21.367Z,1011.44
2019-03-08T01:59:21.891Z,1011.35
2019-03-08T02:00:21.236Z,1011.36
2019-03-08T02:01:21.344Z,1011.37
2019-03-08T02:02:21.211Z,1011.38
2019-03-08T02:03:21.242Z,1011.35
2019-03-08T02:04:21.364Z,1011.4
2019-03-08T02:05:21.195Z,1011.36
2019-03-08T02:06:21.236Z,1011.34
2019-03-08T02:07:21.847Z,1011.39
2019-03-08T02:08:21.160Z,1011.43
2019-03-08T02:09:21.340Z,1011.39
2019-03-08T02:10:21.368Z,1011.36
2019-03-08T02:11:21.469Z,1011.38
2019-03-08T02:12:21.219Z,1011.47
2019-03-08T02:13:21.398Z,1011.46
2019-03-08T02:14:21.194Z,1011.43
2019-03-08T02:15:22.004Z,1011.44
2019-03-08T02:16:21.433Z,1011.43
2019-03-08T02:17:21.179Z,1011.42
2019-03-08T02:18:21.237Z,1011.45
2019-03-08T02:19:21.337Z,1011.39
2019-03-08T02:20:21.138Z,1011.35
2019-03-08T02:21:21.332Z,1011.41
2019-03-08T02:22:23.520Z,1011.35
2019-03-08T02:23:21.652Z,1011.4
2019-03-08T02:24:21.221Z,1011.41
2019-03-08T02:25:21.324Z,1011.42
2019-03-08T02:26:21.248Z,1011.45
2019-03-08T02:27:21.249Z,1011.45
2019-03-08T02:28:21.334Z,1011.47
2019-03-08T02:29:21.220Z,1011.46
2019-03-08T02:30:21.333Z,1011.46
2019-03-08T02:31:22.224Z,1011.54
2019-03-08T02:32:21.173Z,1011.51
2019-03-08T02:33:21.255Z,1011.52
2019-03-08T02:34:21.430Z,1011.57
2019-03-08T02:35:21.192Z,1011.49
2019-03-08T02:36:21.343Z,1011.55
2019-03-08T02:37:21.530Z,1011.53
2019-03-08T02:38:21.353Z,1011.54
2019-03-08T02:39:23.099Z,1011.59
2019-03-08T02:40:21.388Z,1011.58
2019-03-08T02:41:21.174Z,1011.57
2019-03-08T02:42:21.197Z,1011.59
2019-03-08T02:43:21.392Z,1011.57
2019-03-08T02:44:21.172Z,1011.54
2019-03-08T02:45:21.282Z,1011.6
2019-03-08T02:46:21.445Z,1011.59
2019-03-08T02:47:21.724Z,1011.58
2019-03-08T02:48:21.229Z,1011.59
2019-03-08T02:49:21.393Z,1011.6
2019-03-08T02:50:21.241Z,1011.58
2019-03-08T02:51:21.234Z,1011.64
2019-03-08T02:52:21.286Z,1011.6
2019-03-08T02:53:21.184Z,1011.61
2019-03-08T02:54:21.225Z,1011.68
2019-03-08T02:55:21.575Z,1011.67
2019-03-08T02:56:21.151Z,1011.66
2019-03-08T02:57:21.313Z,1011.72
2019-03-08T02:58:21.326Z,1011.7
2019-03-08T02:59:21.172Z,1011.74
2019-03-08T03:00:21.344Z,1011.75
2019-03-08T03:01:21.339Z,1011.76
2019-03-08T03:02:21.189Z,1011.73
2019-03-08T03:03:21.940Z,1011.73
2019-03-08T03:04:21.554Z,1011.78
2019-03-08T03:05:21.118Z,1011.75
2019-03-08T03:06:21.200Z,1011.75
2019-03-08T03:07:21.078Z,1011.77
2019-03-08T03:08:21.168Z,1011.76
2019-03-08T03:09:21.402Z,1011.74
2019-03-08T03:10:21.287Z,1011.75
2019-03-08T03:11:21.484Z,1011.75
2019-03-08T03:12:21.310Z,1011.73
2019-03-08T03:13:21.088Z,1011.72
2019-03-08T03:14:21.211Z,1011.75
2019-03-08T03:15:21.225Z,1011.76
2019-03-08T03:16:21.026Z,1011.76
2019-03-08T03:17:21.237Z,1011.79
2019-03-08T03:18:21.393Z,1011.83
2019-03-08T03:19:21.336Z,1011.81
2019-03-08T03:20:21.208Z,1011.88
2019-03-08T03:21:21.350Z,1011.89
2019-03-08T03:22:21.179Z,1011.88
2019-03-08T03:23:21.242Z,1011.86
2019-03-08T03:24:21.219Z,1011.91
2019-03-08T03:25:21.118Z,1011.92
2019-03-08T03:26:21.185Z,1011.9
2019-03-08T03:27:21.803Z,1011.91
2019-03-08T03:28:21.152Z,1011.93
2019-03-08T03:29:21.204Z,1011.93
2019-03-08T03:30:21.326Z,1011.93
2019-03-08T03:31:21.172Z,1011.95
2019-03-08T03:32:21.201Z,1011.97
2019-03-08T03:33:21.259Z,1011.96
2019-03-08T03:34:21.056Z,1011.99
2019-03-08T03:35:21.758Z,1012
2019-03-08T03:36:21.207Z,1012.07
2019-03-08T03:37:21.111Z,1012
2019-03-08T03:38:21.205Z,1012.07
2019-03-08T03:39:21.243Z,1012.1
2019-03-08T03:40:21.080Z,1012.07
2019-03-08T03:41:21.193Z,1012.08
2019-03-08T03:42:21.318Z,1012.1
2019-03-08T03:43:21.508Z,1012.07
2019-03-08T03:44:21.187Z,1012.05
2019-03-08T03:45:21.230Z,1012.1
2019-03-08T03:46:21.059Z,1012.07
2019-03-08T03:47:21.448Z,1012.06
2019-03-08T03:48:21.244Z,1012.07
2019-03-08T03:49:21.085Z,1012.12
2019-03-08T03:50:21.263Z,1012.13
2019-03-08T03:51:21.781Z,1012.14
2019-03-08T03:52:21.215Z,1012.17
2019-03-08T03:53:21.230Z,1012.14
2019-03-08T03:54:21.257Z,1012.17
2019-03-08T03:55:21.068Z,1012.22
2019-03-08T03:56:21.199Z,1012.2
2019-03-08T03:57:21.389Z,1012.23
2019-03-08T03:58:21.090Z,1012.25
2019-03-08T03:59:21.522Z,1012.29
2019-03-08T04:00:21.278Z,1012.31
2019-03-08T04:01:21.179Z,1012.29
2019-03-08T04:02:22.392Z,1012.34
2019-03-08T04:03:21.252Z,1012.33
2019-03-08T04:04:21.346Z,1012.4
2019-03-08T04:05:21.207Z,1012.38
2019-03-08T04:06:21.310Z,1012.38
2019-03-08T04:07:21.888Z,1012.41
2019-03-08T04:08:21.216Z,1012.38
2019-03-08T04:09:21.063Z,1012.42
2019-03-08T04:10:21.108Z,1012.41
2019-03-08T04:11:21.227Z,1012.42
2019-03-08T04:12:21.328Z,1012.39
2019-03-08T04:13:21.110Z,1012.46
2019-03-08T04:14:21.424Z,1012.47
2019-03-08T04:15:21.226Z,1012.46
2019-03-08T04:16:21.245Z,1012.47
2019-03-08T04:17:21.276Z,1012.51
2019-03-08T04:18:21.148Z,1012.53
2019-03-08T04:19:21.147Z,1012.55
2019-03-08T04:20:21.280Z,1012.58
2019-03-08T04:21:21.166Z,1012.62
2019-03-08T04:22:21.161Z,1012.67
2019-03-08T04:23:21.302Z,1012.61
2019-03-08T04:24:21.099Z,1012.71
2019-03-08T04:25:21.130Z,1012.7
2019-03-08T04:26:21.248Z,1012.72
2019-03-08T04:27:21.118Z,1012.75
2019-03-08T04:28:21.276Z,1012.8
2019-03-08T04:29:21.312Z,1012.81
2019-03-08T04:30:21.175Z,1012.83
2019-03-08T04:31:21.444Z,1012.86
2019-03-08T04:32:21.228Z,1012.84
2019-03-08T04:33:21.088Z,1012.86
2019-03-08T04:34:21.088Z,1012.87
2019-03-08T04:35:21.601Z,1012.87
2019-03-08T04:36:21.048Z,1012.92
2019-03-08T04:37:21.125Z,1012.87
2019-03-08T04:38:21.264Z,1012.88
2019-03-08T04:39:22.014Z,1012.91
2019-03-08T04:40:21.251Z,1012.88
2019-03-08T04:41:21.215Z,1012.85
2019-03-08T04:42:21.038Z,1012.88
2019-03-08T04:43:21.089Z,1012.85
2019-03-08T04:44:21.264Z,1012.84
2019-03-08T04:45:21.129Z,1012.84
2019-03-08T04:46:21.120Z,1012.89
2019-03-08T04:47:21.764Z,1012.89
2019-03-08T04:48:21.309Z,1012.9
2019-03-08T04:49:21.126Z,1012.86
2019-03-08T04:50:21.302Z,1012.86
2019-03-08T04:51:21.300Z,1012.87
2019-03-08T04:52:21.209Z,1012.85
2019-03-08T04:53:21.281Z,1012.86
2019-03-08T04:54:21.357Z,1012.83
2019-03-08T04:55:21.922Z,1012.85
2019-03-08T04:56:21.244Z,1012.88
2019-03-08T04:57:21.525Z,1012.88
2019-03-08T04:58:21.146Z,1012.93
2019-03-08T04:59:21.236Z,1012.95
2019-03-08T05:00:21.265Z,1012.91
2019-03-08T05:01:21.072Z,1012.95
2019-03-08T05:02:21.203Z,1012.95
2019-03-08T05:03:21.820Z,1012.95
2019-03-08T05:04:21.183Z,1012.99
2019-03-08T05:05:21.465Z,1013.1
2019-03-08T05:06:21.357Z,1013.08
2019-03-08T05:07:21.078Z,1013.15
2019-03-08T05:08:21.180Z,1013.13
2019-03-08T05:09:21.260Z,1013.16
2019-03-08T05:10:21.206Z,1013.17
2019-03-08T05:11:21.735Z,1013.15
2019-03-08T05:12:21.242Z,1013.15
2019-03-08T05:13:21.045Z,1013.13
2019-03-08T05:14:21.132Z,1013.15
2019-03-08T05:15:21.334Z,1013.12
2019-03-08T05:16:21.049Z,1013.1
2019-03-08T05:17:21.157Z,1013.13
2019-03-08T05:18:21.240Z,1013.09
2019-03-08T05:19:21.788Z,1013.09
2019-03-08T05:20:21.170Z,1013.1
2019-03-08T05:21:21.186Z,1013.07
2019-03-08T05:22:21.067Z,1013.09
2019-03-08T05:23:21.154Z,1013.13
2019-03-08T05:24:21.321Z,1013.13
2019-03-08T05:25:21.049Z,1013.1
2019-03-08T05:26:21.184Z,1013.14
2019-03-08T05:27:21.744Z,1013.13
2019-03-08T05:28:21.069Z,1013.11
2019-03-08T05:29:24.474Z,1013.17
2019-03-08T05:30:21.188Z,1013.21
2019-03-08T05:31:21.012Z,1013.15
2019-03-08T05:32:21.181Z,1013.19
2019-03-08T05:33:21.202Z,1013.19
2019-03-08T05:34:21.007Z,1013.2
2019-03-08T05:35:21.807Z,1013.24
2019-03-08T05:36:21.199Z,1013.24
2019-03-08T05:37:20.974Z,1013.29
2019-03-08T05:38:21.119Z,1013.27
2019-03-08T05:39:21.342Z,1013.3
2019-03-08T05:40:21.072Z,1013.33
2019-03-08T05:41:21.142Z,1013.29
2019-03-08T05:42:21.221Z,1013.37
2019-03-08T05:43:21.553Z,1013.35
2019-03-08T05:44:21.167Z,1013.37
2019-03-08T05:45:21.191Z,1013.43
2019-03-08T05:46:21.029Z,1013.43
2019-03-08T05:47:21.136Z,1013.49
2019-03-08T05:48:21.231Z,1013.49
2019-03-08T05:49:21.047Z,1013.53
2019-03-08T05:50:21.149Z,1013.57
2019-03-08T05:51:21.813Z,1013.63
2019-03-08T05:52:21.007Z,1013.68
2019-03-08T05:53:21.145Z,1013.69
2019-03-08T05:54:21.199Z,1013.72
2019-03-08T05:55:21.048Z,1013.72
2019-03-08T05:56:21.155Z,1013.71
2019-03-08T05:57:21.195Z,1013.7
2019-03-08T05:58:20.973Z,1013.75
2019-03-08T05:59:21.130Z,1013.77
2019-03-08T06:00:21.222Z,1013.77
2019-03-08T06:01:21.015Z,1013.82
2019-03-08T06:02:21.151Z,1013.82
2019-03-08T06:03:21.316Z,1013.85
2019-03-08T06:04:21.053Z,1013.83
2019-03-08T06:05:21.172Z,1013.84
2019-03-08T06:06:21.497Z,1013.85
2019-03-08T06:07:21.166Z,1013.84
2019-03-08T06:08:21.145Z,1013.81
2019-03-08T06:09:21.347Z,1013.86
2019-03-08T06:10:21.050Z,1013.85
2019-03-08T06:11:21.188Z,1013.88
2019-03-08T06:12:21.355Z,1013.88
2019-03-08T06:13:21.153Z,1013.87
2019-03-08T06:14:21.674Z,1013.93
2019-03-08T06:15:21.318Z,1013.94
2019-03-08T06:16:21.208Z,1013.97
2019-03-08T06:17:21.163Z,1014
2019-03-08T06:18:21.345Z,1014.01
2019-03-08T06:19:21.063Z,1014.04
2019-03-08T06:20:21.217Z,1014.01
2019-03-08T06:21:21.335Z,1014.03
2019-03-08T06:22:21.627Z,1014.08
2019-03-08T06:23:21.154Z,1014.13
2019-03-08T06:24:21.304Z,1014.13
2019-03-08T06:25:21.032Z,1014.12
2019-03-08T06:26:21.440Z,1014.11
2019-03-08T06:27:21.208Z,1014.13
2019-03-08T06:28:21.002Z,1014.16
2019-03-08T06:29:21.217Z,1014.17
2019-03-08T06:30:21.897Z,1014.17
2019-03-08T06:31:21.106Z,1014.2
2019-03-08T06:32:21.137Z,1014.21
2019-03-08T06:33:21.312Z,1014.21
2019-03-08T06:34:21.049Z,1014.26
2019-03-08T06:35:21.212Z,1014.3
2019-03-08T06:36:21.294Z,1014.26
2019-03-08T06:37:21.175Z,1014.25
2019-03-08T06:38:21.217Z,1014.3
2019-03-08T06:39:21.114Z,1014.3
2019-03-08T06:40:21.229Z,1014.37
2019-03-08T06:41:21.297Z,1014.36
2019-03-08T06:42:21.170Z,1014.36
2019-03-08T06:43:21.451Z,1014.45
2019-03-08T06:44:21.554Z,1014.48
2019-03-08T06:45:21.249Z,1014.45
2019-03-08T06:46:21.290Z,1014.46
2019-03-08T06:47:21.340Z,1014.45
2019-03-08T06:48:21.200Z,1014.5
2019-03-08T06:49:21.224Z,1014.5
2019-03-08T06:50:21.319Z,1014.52
2019-03-08T06:51:21.360Z,1014.49
2019-03-08T06:52:21.171Z,1014.51
2019-03-08T06:53:21.545Z,1014.54
2019-03-08T06:54:21.205Z,1014.6
2019-03-08T06:55:21.468Z,1014.56
2019-03-08T06:56:21.192Z,1014.58
2019-03-08T06:57:21.259Z,1014.55
2019-03-08T06:58:21.302Z,1014.58
2019-03-08T06:59:21.180Z,1014.56
2019-03-08T07:00:21.236Z,1014.66
2019-03-08T07:01:21.908Z,1014.65
2019-03-08T07:02:21.189Z,1014.58
2019-03-08T07:03:21.248Z,1014.66
2019-03-08T07:04:21.087Z,1014.68
2019-03-08T07:05:21.088Z,1014.69
2019-03-08T07:06:21.537Z,1014.71
2019-03-08T07:07:21.265Z,1014.71
2019-03-08T07:08:21.298Z,1014.77
2019-03-08T07:09:21.763Z,1014.81
2019-03-08T07:10:21.140Z,1014.78
2019-03-08T07:11:21.251Z,1014.82
2019-03-08T07:12:21.380Z,1014.81
2019-03-08T07:13:21.205Z,1014.84
2019-03-08T07:14:21.214Z,1014.79
2019-03-08T07:15:21.075Z,1014.8
2019-03-08T07:16:21.155Z,1014.86
2019-03-08T07:17:21.716Z,1014.86
2019-03-08T07:18:21.070Z,1014.94
2019-03-08T07:19:21.258Z,1014.9
2019-03-08T07:20:21.227Z,1014.91
2019-03-08T07:21:21.142Z,1014.96
2019-03-08T07:22:21.213Z,1014.97
2019-03-08T07:23:28.414Z,1015
2019-03-08T07:24:21.111Z,1014.93
2019-03-08T07:25:21.233Z,1014.96
2019-03-08T07:26:21.251Z,1015.06
2019-03-08T07:27:21.187Z,1015.03
2019-03-08T07:28:21.259Z,1015.06
2019-03-08T07:29:21.288Z,1015.06
2019-03-08T07:30:21.235Z,1015.13
2019-03-08T07:31:21.270Z,1015.14
2019-03-08T07:32:21.090Z,1015.15
2019-03-08T07:33:21.364Z,1015.15
2019-03-08T07:34:21.255Z,1015.21
2019-03-08T07:35:21.113Z,1015.26
2019-03-08T07:36:21.219Z,1015.2
2019-03-08T07:37:21.346Z,1015.25
2019-03-08T07:38:21.275Z,1015.29
2019-03-08T07:39:21.251Z,1015.35
2019-03-08T07:40:21.300Z,1015.37
2019-03-08T07:41:21.098Z,1015.39
2019-03-08T07:42:21.212Z,1015.4
2019-03-08T07:43:21.133Z,1015.47
2019-03-08T07:44:21.183Z,1015.53
2019-03-08T07:45:21.218Z,1015.46
2019-03-08T07:46:21.094Z,1015.54
2019-03-08T07:47:21.130Z,1015.58
2019-03-08T07:48:21.253Z,1015.63
2019-03-08T07:49:23.080Z,1015.63
2019-03-08T07:50:21.162Z,1015.69
2019-03-08T07:51:21.118Z,1015.77
2019-03-08T07:52:21.201Z,1015.7
2019-03-08T07:53:21.173Z,1015.73
2019-03-08T07:54:21.340Z,1015.74
2019-03-08T07:55:21.081Z,1015.8
2019-03-08T07:56:21.222Z,1015.75
2019-03-08T07:57:21.269Z,1015.77
2019-03-08T07:58:21.141Z,1015.81
2019-03-08T07:59:21.223Z,1015.82
2019-03-08T08:00:21.083Z,1015.75
2019-03-08T08:01:21.144Z,1015.83
2019-03-08T08:02:21.229Z,1015.85
2019-03-08T08:03:21.104Z,1015.8
2019-03-08T08:04:21.208Z,1015.88
2019-03-08T08:05:21.652Z,1015.87
2019-03-08T08:06:21.135Z,1015.88
2019-03-08T08:07:21.149Z,1015.93
2019-03-08T08:08:21.281Z,1015.93
2019-03-08T08:09:21.122Z,1015.89
2019-03-08T08:10:21.230Z,1015.95
2019-03-08T08:11:21.611Z,1015.89
2019-03-08T08:12:21.164Z,1015.91
2019-03-08T08:13:21.914Z,1015.94
2019-03-08T08:14:21.075Z,1015.93
2019-03-08T08:15:21.178Z,1015.99
2019-03-08T08:16:21.271Z,1015.95
2019-03-08T08:17:21.054Z,1016.02
2019-03-08T08:18:21.220Z,1016.01
2019-03-08T08:19:21.243Z,1016.09
2019-03-08T08:20:21.311Z,1016.04
2019-03-08T08:21:21.458Z,1016.1
2019-03-08T08:22:21.105Z,1016.16
2019-03-08T08:23:21.266Z,1016.1
2019-03-08T08:24:20.991Z,1016.15
2019-03-08T08:25:21.079Z,1016.13
2019-03-08T08:26:21.247Z,1016.13
2019-03-08T08:27:21.020Z,1016.16
2019-03-08T08:28:21.097Z,1016.2
2019-03-08T08:29:21.617Z,1016.24
2019-03-08T08:30:21.099Z,1016.28
2019-03-08T08:31:21.130Z,1016.28
2019-03-08T08:32:21.249Z,1016.27
2019-03-08T08:33:21.032Z,1016.3
2019-03-08T08:34:22.197Z,1016.36
2019-03-08T08:35:21.205Z,1016.33
2019-03-08T08:36:21.351Z,1016.35
2019-03-08T08:37:21.777Z,1016.32
2019-03-08T08:38:21.267Z,1016.35
2019-03-08T08:39:21.034Z,1016.35
2019-03-08T08:40:21.017Z,1016.39
2019-03-08T08:41:21.228Z,1016.37
2019-03-08T08:42:21.015Z,1016.35
2019-03-08T08:43:21.025Z,1016.37
2019-03-08T08:44:21.162Z,1016.36
2019-03-08T08:45:21.425Z,1016.37
2019-03-08T08:46:21.077Z,1016.4
2019-03-08T08:47:21.160Z,1016.38
2019-03-08T08:48:21.065Z,1016.32
2019-03-08T08:49:21.054Z,1016.36
2019-03-08T08:50:21.152Z,1016.42
2019-03-08T08:51:20.988Z,1016.46
2019-03-08T08:52:21.049Z,1016.59
2019-03-08T08:53:21.689Z,1016.48
2019-03-08T08:54:20.940Z,1016.49
2019-03-08T08:55:20.988Z,1016.44
2019-03-08T08:56:21.127Z,1016.45
2019-03-08T08:57:21.295Z,1016.57
2019-03-08T08:58:21.125Z,1016.48
2019-03-08T08:59:21.118Z,1016.56
2019-03-08T09:00:21.125Z,1016.52
2019-03-08T09:01:21.439Z,1016.52
2019-03-08T09:02:21.167Z,1016.44
2019-03-08T09:03:21.166Z,1016.49
2019-03-08T09:04:21.124Z,1016.57
2019-03-08T09:05:21.142Z,1016.5
2019-03-08T09:06:21.150Z,1016.56
2019-03-08T09:07:21.206Z,1016.52
2019-03-08T09:08:21.185Z,1016.53
2019-03-08T09:09:21.804Z,1016.6
2019-03-08T09:10:20.997Z,1016.58
2019-03-08T09:11:21.118Z,1016.54
2019-03-08T09:12:20.993Z,1016.62
2019-03-08T09:13:21.151Z,1016.51
2019-03-08T09:14:21.173Z,1016.55
2019-03-08T09:15:20.934Z,1016.57
2019-03-08T09:16:20.989Z,1016.53
2019-03-08T09:17:21.655Z,1016.52
2019-03-08T09:18:21.180Z,1016.5
2019-03-08T09:19:20.947Z,1016.5
2019-03-08T09:20:21.467Z,1016.57
2019-03-08T09:21:21.180Z,1016.6
2019-03-08T09:22:20.994Z,1016.65
2019-03-08T09:23:21.125Z,1016.65
2019-03-08T09:24:21.263Z,1016.65
2019-03-08T09:25:21.717Z,1016.64
2019-03-08T09:26:21.226Z,1016.81
2019-03-08T09:27:21.023Z,1016.74
2019-03-08T09:28:21.166Z,1016.68
2019-03-08T09:29:21.102Z,1016.64
2019-03-08T09:30:20.945Z,1016.68
2019-03-08T09:31:20.992Z,1016.72
2019-03-08T09:32:21.154Z,1016.65
2019-03-08T09:33:21.472Z,1016.71
2019-03-08T09:34:21.033Z,1016.65
2019-03-08T09:35:21.167Z,1016.61
2019-03-08T09:36:21.042Z,1016.67
2019-03-08T09:37:20.989Z,1016.66
2019-03-08T09:38:21.171Z,1016.63
2019-03-08T09:39:21.309Z,1016.76
2019-03-08T09:40:21.095Z,1016.77
2019-03-08T09:41:21.624Z,1016.75
2019-03-08T09:42:21.252Z,1016.8
2019-03-08T09:43:20.993Z,1016.78
2019-03-08T09:44:21.112Z,1016.79
2019-03-08T09:45:21.255Z,1016.82
2019-03-08T09:46:20.972Z,1016.86
2019-03-08T09:47:21.101Z,1016.88
2019-03-08T09:48:20.900Z,1016.86
2019-03-08T09:49:21.578Z,1016.89
2019-03-08T09:50:21.055Z,1016.92
2019-03-08T09:51:21.237Z,1016.92
2019-03-08T09:52:21.040Z,1017.01
2019-03-08T09:53:21.068Z,1017.01
2019-03-08T09:54:21.219Z,1016.98
2019-03-08T09:55:21.091Z,1017
2019-03-08T09:56:21.125Z,1016.98
2019-03-08T09:57:21.636Z,1017.01
2019-03-08T09:58:21.060Z,1017.05
2019-03-08T09:59:21.163Z,1016.98
2019-03-08T10:00:21.167Z,1017.11
2019-03-08T10:01:21.063Z,1017
2019-03-08T10:02:21.120Z,1016.94
2019-03-08T10:03:21.160Z,1017
2019-03-08T10:04:21.098Z,1017.02
2019-03-08T10:05:21.488Z,1017.02
2019-03-08T10:06:20.920Z,1016.97
2019-03-08T10:07:21.144Z,1017
2019-03-08T10:08:21.179Z,1017
2019-03-08T10:09:20.962Z,1016.98
2019-03-08T10:10:21.366Z,1017.06
2019-03-08T10:11:21.148Z,1017.1
2019-03-08T10:12:21.124Z,1016.98
2019-03-08T10:13:21.649Z,1017.05
2019-03-08T10:14:21.149Z,1017.07
2019-03-08T10:15:21.013Z,1017.04
2019-03-08T10:16:21.016Z,1017.06
2019-03-08T10:17:21.150Z,1017.09
2019-03-08T10:18:20.985Z,1017.02
2019-03-08T10:19:21.049Z,1017.22
2019-03-08T10:20:21.094Z,1017.12
2019-03-08T10:21:21.399Z,1017.12
2019-03-08T10:22:21.131Z,1017.15
2019-03-08T10:23:21.184Z,1017.15
2019-03-08T10:24:21.074Z,1017.26
2019-03-08T10:25:21.019Z,1017.18
2019-03-08T10:26:21.128Z,1017.18
2019-03-08T10:27:21.165Z,1017.13
2019-03-08T10:28:21.047Z,1017.19
2019-03-08T10:29:21.662Z,1017.32
2019-03-08T10:30:20.934Z,1017.32
2019-03-08T10:31:20.954Z,1017.24
2019-03-08T10:32:21.144Z,1017.32
2019-03-08T10:33:21.217Z,1017.3
2019-03-08T10:34:20.987Z,1017.38
2019-03-08T10:35:24.472Z,1017.46
2019-03-08T10:36:21.150Z,1017.39
2019-03-08T10:37:21.514Z,1017.39
2019-03-08T10:38:23.196Z,1017.43
2019-03-08T10:39:20.930Z,1017.42
2019-03-08T10:40:21.025Z,1017.44
2019-03-08T10:41:21.138Z,1017.45
2019-03-08T10:42:21.016Z,1017.54
2019-03-08T10:43:21.003Z,1017.53
2019-03-08T10:44:21.133Z,1017.49
2019-03-08T10:45:21.470Z,1017.53
2019-03-08T10:46:21.021Z,1017.58
2019-03-08T10:47:21.088Z,1017.61
2019-03-08T10:48:21.208Z,1017.61
2019-03-08T10:49:21.163Z,1017.63
2019-03-08T10:50:21.211Z,1017.62
2019-03-08T10:51:20.983Z,1017.63
2019-03-08T10:52:21.143Z,1017.62
2019-03-08T10:53:21.634Z,1017.65
2019-03-08T10:54:21.041Z,1017.72
2019-03-08T10:55:21.025Z,1017.71
2019-03-08T10:56:21.094Z,1017.77
2019-03-08T10:57:21.012Z,1017.77
2019-03-08T10:58:21.031Z,1017.77
2019-03-08T10:59:21.120Z,1017.81
2019-03-08T11:00:20.959Z,1017.8
2019-03-08T11:01:21.483Z,1017.84
2019-03-08T11:02:21.204Z,1017.86
2019-03-08T11:03:21.009Z,1017.92
2019-03-08T11:04:21.009Z,1017.88
2019-03-08T11:05:21.259Z,1017.88
2019-03-08T11:06:21.042Z,1017.92
2019-03-08T11:07:21.029Z,1017.94
2019-03-08T11:08:30.296Z,1017.97
2019-03-08T11:09:21.541Z,1018
2019-03-08T11:10:21.050Z,1018.02
2019-03-08T11:11:21.399Z,1018.05
2019-03-08T11:12:21.021Z,1018.07
2019-03-08T11:13:20.968Z,1018.13
2019-03-08T11:14:21.145Z,1018.06
2019-03-08T11:15:25.167Z,1018.13
2019-03-08T11:16:20.975Z,1018.11
2019-03-08T11:17:21.803Z,1018.12
2019-03-08T11:18:21.041Z,1018.1
2019-03-08T11:19:21.099Z,1018.13
2019-03-08T11:20:21.164Z,1018.17
2019-03-08T11:21:20.991Z,1018.18
2019-03-08T11:22:21.157Z,1018.22
2019-03-08T11:23:21.168Z,1018.18
2019-03-08T11:24:21.042Z,1018.18
2019-03-08T11:25:21.554Z,1018.23
2019-03-08T11:26:21.161Z,1018.24
2019-03-08T11:27:20.981Z,1018.22
2019-03-08T11:28:21.599Z,1018.28
2019-03-08T11:29:21.108Z,1018.27
2019-03-08T11:30:22.027Z,1018.21
2019-03-08T11:31:20.984Z,1018.25
2019-03-08T11:32:23.652Z,1018.26
2019-03-08T11:33:21.510Z,1018.26
2019-03-08T11:34:21.100Z,1018.29
2019-03-08T11:35:21.009Z,1018.27
2019-03-08T11:36:21.234Z,1018.27
2019-03-08T11:37:20.996Z,1018.3
2019-03-08T11:38:22.915Z,1018.32
2019-03-08T11:39:21.109Z,1018.31
2019-03-08T11:40:20.985Z,1018.27
2019-03-08T11:41:21.470Z,1018.2
2019-03-08T11:42:21.229Z,1018.27
2019-03-08T11:43:21.072Z,1018.27
2019-03-08T11:44:21.118Z,1018.28
2019-03-08T11:45:21.114Z,1018.26
2019-03-08T11:46:21.013Z,1018.27
2019-03-08T11:47:21.113Z,1018.24
2019-03-08T11:48:21.125Z,1018.23
2019-03-08T11:49:21.099Z,1018.27
2019-03-08T11:50:21.083Z,1018.3
2019-03-08T11:51:21.132Z,1018.31
2019-03-08T11:52:20.970Z,1018.37
2019-03-08T11:53:21.049Z,1018.4
2019-03-08T11:54:21.224Z,1018.47
2019-03-08T11:55:20.938Z,1018.5
2019-03-08T11:56:21.047Z,1018.51
2019-03-08T11:57:21.099Z,1018.51
2019-03-08T11:58:21.432Z,1018.49
2019-03-08T11:59:21.049Z,1018.52
2019-03-08T12:00:21.043Z,1018.5
2019-03-08T12:01:21.157Z,1018.5
2019-03-08T12:02:21.029Z,1018.52
2019-03-08T12:03:21.037Z,1018.56
2019-03-08T12:04:21.169Z,1018.57
2019-03-08T12:05:20.992Z,1018.54
2019-03-08T12:06:21.162Z,1018.56
2019-03-08T12:07:21.162Z,1018.55
2019-03-08T12:08:20.925Z,1018.54